sensor_id;sensor_type;location;lat;lon;timestamp;P1;durP1;ratioP1;P2;durP2;ratioP2
16015;SDS011;8112;53.592;10.184;2023-03-14T00:01:43;3.43;;;2.27;;
16015;SDS011;8112;53.592;10.184;2023-03-14T00:06:45;5.57;;;2.50;;
16015;SDS011;8112;53.592;10.184;2023-03-14T00:11:48;3.97;;;2.60;;
16015;SDS011;8112;53.592;10.184;2023-03-14T00:16:50;5.43;;;2.73;;
16015;SDS011;8112;53.592;10.184;2023-03-14T00:21:52;4.00;;;2.50;;
16015;SDS011;8112;53.592;10.184;2023-03-14T00:26:55;7.33;;;2.70;;
16015;SDS011;8112;53.592;10.184;2023-03-14T00:31:57;3.37;;;2.30;;
16015;SDS011;8112;53.592;10.184;2023-03-14T00:36:58;4.00;;;2.50;;
16015;SDS011;8112;53.592;10.184;2023-03-14T00:42:01;4.90;;;2.60;;
16015;SDS011;8112;53.592;10.184;2023-03-14T00:47:03;4.30;;;2.43;;
16015;SDS011;8112;53.592;10.184;2023-03-14T00:52:05;4.27;;;2.40;;
16015;SDS011;8112;53.592;10.184;2023-03-14T00:57:08;4.67;;;2.57;;
16015;SDS011;8112;53.592;10.184;2023-03-14T01:02:10;4.67;;;3.30;;
16015;SDS011;8112;53.592;10.184;2023-03-14T01:07:11;4.83;;;2.73;;
16015;SDS011;8112;53.592;10.184;2023-03-14T01:12:14;4.40;;;2.77;;
16015;SDS011;8112;53.592;10.184;2023-03-14T01:17:16;5.90;;;2.53;;
16015;SDS011;8112;53.592;10.184;2023-03-14T01:22:18;5.47;;;2.97;;
16015;SDS011;8112;53.592;10.184;2023-03-14T01:27:22;5.37;;;2.50;;
16015;SDS011;8112;53.592;10.184;2023-03-14T01:32:24;5.10;;;2.87;;
16015;SDS011;8112;53.592;10.184;2023-03-14T01:37:27;5.13;;;2.77;;
16015;SDS011;8112;53.592;10.184;2023-03-14T01:42:30;7.30;;;2.63;;
16015;SDS011;8112;53.592;10.184;2023-03-14T01:47:32;8.13;;;3.03;;
16015;SDS011;8112;53.592;10.184;2023-03-14T01:52:34;4.97;;;3.00;;
16015;SDS011;8112;53.592;10.184;2023-03-14T01:57:44;4.67;;;3.00;;
16015;SDS011;8112;53.592;10.184;2023-03-14T02:02:51;5.87;;;3.17;;
16015;SDS011;8112;53.592;10.184;2023-03-14T02:07:58;4.33;;;2.77;;
16015;SDS011;8112;53.592;10.184;2023-03-14T02:13:10;6.00;;;2.90;;
16015;SDS011;8112;53.592;10.184;2023-03-14T02:18:42;6.33;;;2.80;;
16015;SDS011;8112;53.592;10.184;2023-03-14T02:24:04;5.00;;;3.70;;
16015;SDS011;8112;53.592;10.184;2023-03-14T02:29:20;7.03;;;3.10;;
16015;SDS011;8112;53.592;10.184;2023-03-14T02:34:23;4.93;;;3.07;;
16015;SDS011;8112;53.592;10.184;2023-03-14T02:39:27;8.10;;;2.90;;
16015;SDS011;8112;53.592;10.184;2023-03-14T02:44:47;5.53;;;2.83;;
16015;SDS011;8112;53.592;10.184;2023-03-14T02:49:50;8.03;;;3.43;;
16015;SDS011;8112;53.592;10.184;2023-03-14T02:54:56;7.03;;;3.10;;
16015;SDS011;8112;53.592;10.184;2023-03-14T03:00:00;6.73;;;2.83;;
16015;SDS011;8112;53.592;10.184;2023-03-14T03:05:08;7.83;;;2.87;;
16015;SDS011;8112;53.592;10.184;2023-03-14T03:10:11;5.93;;;3.40;;
16015;SDS011;8112;53.592;10.184;2023-03-14T03:15:14;7.60;;;3.77;;
16015;SDS011;8112;53.592;10.184;2023-03-14T03:20:16;7.00;;;3.60;;
16015;SDS011;8112;53.592;10.184;2023-03-14T03:25:18;4.17;;;2.73;;
16015;SDS011;8112;53.592;10.184;2023-03-14T03:30:21;6.90;;;2.93;;
16015;SDS011;8112;53.592;10.184;2023-03-14T03:35:23;4.20;;;2.93;;
16015;SDS011;8112;53.592;10.184;2023-03-14T03:40:28;6.10;;;2.87;;
16015;SDS011;8112;53.592;10.184;2023-03-14T03:45:32;4.80;;;2.63;;
16015;SDS011;8112;53.592;10.184;2023-03-14T03:50:34;3.87;;;3.07;;
16015;SDS011;8112;53.592;10.184;2023-03-14T03:55:36;4.50;;;2.80;;
16015;SDS011;8112;53.592;10.184;2023-03-14T04:00:39;7.83;;;3.17;;
16015;SDS011;8112;53.592;10.184;2023-03-14T04:05:41;8.10;;;3.27;;
16015;SDS011;8112;53.592;10.184;2023-03-14T04:10:44;7.17;;;3.10;;
16015;SDS011;8112;53.592;10.184;2023-03-14T04:15:53;6.63;;;3.67;;
16015;SDS011;8112;53.592;10.184;2023-03-14T04:21:00;5.40;;;3.33;;
16015;SDS011;8112;53.592;10.184;2023-03-14T04:26:12;6.93;;;3.70;;
16015;SDS011;8112;53.592;10.184;2023-03-14T04:31:16;7.20;;;3.40;;
16015;SDS011;8112;53.592;10.184;2023-03-14T04:36:20;5.10;;;3.43;;
16015;SDS011;8112;53.592;10.184;2023-03-14T04:41:22;5.77;;;3.27;;
16015;SDS011;8112;53.592;10.184;2023-03-14T04:46:25;8.40;;;3.50;;
16015;SDS011;8112;53.592;10.184;2023-03-14T04:51:27;6.10;;;3.53;;
16015;SDS011;8112;53.592;10.184;2023-03-14T04:56:29;5.40;;;2.90;;
16015;SDS011;8112;53.592;10.184;2023-03-14T05:01:33;7.20;;;3.77;;
16015;SDS011;8112;53.592;10.184;2023-03-14T05:06:53;6.13;;;3.60;;
16015;SDS011;8112;53.592;10.184;2023-03-14T05:12:06;9.87;;;3.73;;
16015;SDS011;8112;53.592;10.184;2023-03-14T05:17:35;6.93;;;3.40;;
16015;SDS011;8112;53.592;10.184;2023-03-14T05:23:06;7.87;;;3.33;;
16015;SDS011;8112;53.592;10.184;2023-03-14T05:28:23;3.87;;;3.23;;
16015;SDS011;8112;53.592;10.184;2023-03-14T05:33:40;5.97;;;3.87;;
16015;SDS011;8112;53.592;10.184;2023-03-14T05:39:05;6.40;;;3.40;;
16015;SDS011;8112;53.592;10.184;2023-03-14T05:44:13;7.83;;;3.70;;
16015;SDS011;8112;53.592;10.184;2023-03-14T05:49:54;4.73;;;3.63;;
16015;SDS011;8112;53.592;10.184;2023-03-14T05:55:28;7.70;;;4.00;;
16015;SDS011;8112;53.592;10.184;2023-03-14T06:00:42;4.87;;;4.37;;
16015;SDS011;8112;53.592;10.184;2023-03-14T06:06:04;6.97;;;4.63;;
16015;SDS011;8112;53.592;10.184;2023-03-14T06:11:06;4.30;;;3.60;;
16015;SDS011;8112;53.592;10.184;2023-03-14T06:16:09;5.87;;;4.20;;
16015;SDS011;8112;53.592;10.184;2023-03-14T06:21:12;9.33;;;4.93;;
16015;SDS011;8112;53.592;10.184;2023-03-14T06:26:14;7.77;;;4.27;;
16015;SDS011;8112;53.592;10.184;2023-03-14T06:31:16;9.67;;;3.97;;
16015;SDS011;8112;53.592;10.184;2023-03-14T06:36:31;8.53;;;3.70;;
16015;SDS011;8112;53.592;10.184;2023-03-14T06:41:33;7.63;;;3.90;;
16015;SDS011;8112;53.592;10.184;2023-03-14T06:46:35;6.37;;;3.73;;
16015;SDS011;8112;53.592;10.184;2023-03-14T06:51:39;6.77;;;3.00;;
16015;SDS011;8112;53.592;10.184;2023-03-14T06:56:43;5.37;;;3.03;;
16015;SDS011;8112;53.592;10.184;2023-03-14T07:01:45;5.20;;;2.80;;
16015;SDS011;8112;53.592;10.184;2023-03-14T07:06:50;2.50;;;2.23;;
16015;SDS011;8112;53.592;10.184;2023-03-14T07:11:52;5.70;;;2.57;;
16015;SDS011;8112;53.592;10.184;2023-03-14T07:16:54;4.27;;;2.33;;
16015;SDS011;8112;53.592;10.184;2023-03-14T07:21:57;4.80;;;2.63;;
16015;SDS011;8112;53.592;10.184;2023-03-14T07:27:01;5.87;;;2.10;;
16015;SDS011;8112;53.592;10.184;2023-03-14T07:32:03;7.83;;;2.83;;
16015;SDS011;8112;53.592;10.184;2023-03-14T07:37:06;2.87;;;1.90;;
16015;SDS011;8112;53.592;10.184;2023-03-14T07:42:09;5.63;;;2.30;;
16015;SDS011;8112;53.592;10.184;2023-03-14T07:47:33;3.87;;;2.30;;
16015;SDS011;8112;53.592;10.184;2023-03-14T07:52:36;5.47;;;2.07;;
16015;SDS011;8112;53.592;10.184;2023-03-14T07:57:38;8.57;;;2.43;;
16015;SDS011;8112;53.592;10.184;2023-03-14T08:02:40;3.00;;;1.80;;
16015;SDS011;8112;53.592;10.184;2023-03-14T08:07:43;3.23;;;1.57;;
16015;SDS011;8112;53.592;10.184;2023-03-14T08:12:44;4.23;;;1.80;;
16015;SDS011;8112;53.592;10.184;2023-03-14T08:17:46;3.87;;;1.60;;
16015;SDS011;8112;53.592;10.184;2023-03-14T08:22:52;4.40;;;1.77;;
16015;SDS011;8112;53.592;10.184;2023-03-14T08:27:56;2.60;;;1.83;;
16015;SDS011;8112;53.592;10.184;2023-03-14T08:32:58;2.70;;;1.70;;
16015;SDS011;8112;53.592;10.184;2023-03-14T08:38:01;3.93;;;2.23;;
16015;SDS011;8112;53.592;10.184;2023-03-14T08:43:03;3.30;;;2.20;;
16015;SDS011;8112;53.592;10.184;2023-03-14T08:48:04;4.73;;;2.27;;
16015;SDS011;8112;53.592;10.184;2023-03-14T08:53:08;3.83;;;2.13;;
16015;SDS011;8112;53.592;10.184;2023-03-14T08:58:09;2.53;;;2.00;;
16015;SDS011;8112;53.592;10.184;2023-03-14T09:03:11;2.77;;;2.30;;
16015;SDS011;8112;53.592;10.184;2023-03-14T09:08:14;2.67;;;2.37;;
16015;SDS011;8112;53.592;10.184;2023-03-14T09:13:16;5.73;;;3.07;;
16015;SDS011;8112;53.592;10.184;2023-03-14T09:18:18;8.70;;;3.67;;
16015;SDS011;8112;53.592;10.184;2023-03-14T09:23:21;5.20;;;2.97;;
16015;SDS011;8112;53.592;10.184;2023-03-14T09:28:23;5.67;;;3.80;;
16015;SDS011;8112;53.592;10.184;2023-03-14T09:33:24;6.23;;;3.53;;
16015;SDS011;8112;53.592;10.184;2023-03-14T09:38:27;6.00;;;3.93;;
16015;SDS011;8112;53.592;10.184;2023-03-14T09:43:30;6.03;;;4.07;;
16015;SDS011;8112;53.592;10.184;2023-03-14T09:48:34;8.50;;;4.10;;
16015;SDS011;8112;53.592;10.184;2023-03-14T09:53:39;5.00;;;3.50;;
16015;SDS011;8112;53.592;10.184;2023-03-14T09:58:43;7.83;;;3.80;;
16015;SDS011;8112;53.592;10.184;2023-03-14T10:03:47;7.03;;;3.70;;
16015;SDS011;8112;53.592;10.184;2023-03-14T10:08:50;5.27;;;3.57;;
16015;SDS011;8112;53.592;10.184;2023-03-14T10:14:02;3.87;;;1.47;;
16015;SDS011;8112;53.592;10.184;2023-03-14T10:19:09;1.50;;;0.70;;
16015;SDS011;8112;53.592;10.184;2023-03-14T10:24:20;2.00;;;1.27;;
16015;SDS011;8112;53.592;10.184;2023-03-14T10:29:23;1.93;;;1.20;;
16015;SDS011;8112;53.592;10.184;2023-03-14T10:34:26;2.37;;;1.10;;
16015;SDS011;8112;53.592;10.184;2023-03-14T10:39:36;1.83;;;1.30;;
16015;SDS011;8112;53.592;10.184;2023-03-14T10:44:43;1.10;;;1.00;;
16015;SDS011;8112;53.592;10.184;2023-03-14T10:49:45;1.30;;;0.93;;
16015;SDS011;8112;53.592;10.184;2023-03-14T10:54:50;0.87;;;0.63;;
16015;SDS011;8112;53.592;10.184;2023-03-14T10:59:57;0.83;;;0.77;;
16015;SDS011;8112;53.592;10.184;2023-03-14T11:05:02;4.00;;;1.10;;
16015;SDS011;8112;53.592;10.184;2023-03-14T11:10:17;0.80;;;0.80;;
16015;SDS011;8112;53.592;10.184;2023-03-14T11:15:23;1.53;;;0.80;;
16015;SDS011;8112;53.592;10.184;2023-03-14T11:20:33;1.63;;;0.90;;
16015;SDS011;8112;53.592;10.184;2023-03-14T11:25:42;1.87;;;1.00;;
16015;SDS011;8112;53.592;10.184;2023-03-14T11:30:51;4.90;;;1.17;;
16015;SDS011;8112;53.592;10.184;2023-03-14T11:35:56;3.87;;;1.10;;
16015;SDS011;8112;53.592;10.184;2023-03-14T11:41:04;2.27;;;1.00;;
16015;SDS011;8112;53.592;10.184;2023-03-14T11:46:14;1.27;;;0.90;;
16015;SDS011;8112;53.592;10.184;2023-03-14T11:51:24;4.77;;;1.40;;
16015;SDS011;8112;53.592;10.184;2023-03-14T11:56:31;2.63;;;1.10;;
16015;SDS011;8112;53.592;10.184;2023-03-14T12:01:41;3.87;;;1.10;;
16015;SDS011;8112;53.592;10.184;2023-03-14T12:06:53;3.67;;;1.10;;
16015;SDS011;8112;53.592;10.184;2023-03-14T12:11:59;9.23;;;2.10;;
16015;SDS011;8112;53.592;10.184;2023-03-14T12:17:05;4.53;;;1.13;;
16015;SDS011;8112;53.592;10.184;2023-03-14T12:22:18;4.30;;;1.80;;
16015;SDS011;8112;53.592;10.184;2023-03-14T12:38:29;5.13;;;1.67;;
16015;SDS011;8112;53.592;10.184;2023-03-14T12:43:44;6.13;;;1.87;;
16015;SDS011;8112;53.592;10.184;2023-03-14T12:48:46;8.73;;;1.90;;
16015;SDS011;8112;53.592;10.184;2023-03-14T12:59:30;3.73;;;1.80;;
16015;SDS011;8112;53.592;10.184;2023-03-14T13:04:34;4.93;;;1.50;;
16015;SDS011;8112;53.592;10.184;2023-03-14T13:15:11;4.37;;;1.70;;
16015;SDS011;8112;53.592;10.184;2023-03-14T13:20:19;6.97;;;2.07;;
16015;SDS011;8112;53.592;10.184;2023-03-14T13:25:28;4.87;;;1.93;;
16015;SDS011;8112;53.592;10.184;2023-03-14T13:30:38;7.63;;;2.00;;
16015;SDS011;8112;53.592;10.184;2023-03-14T13:35:43;8.33;;;2.20;;
16015;SDS011;8112;53.592;10.184;2023-03-14T13:40:46;9.60;;;2.50;;
16015;SDS011;8112;53.592;10.184;2023-03-14T13:45:52;6.27;;;2.03;;
16015;SDS011;8112;53.592;10.184;2023-03-14T13:50:56;9.43;;;1.90;;
16015;SDS011;8112;53.592;10.184;2023-03-14T13:56:02;5.70;;;2.00;;
16015;SDS011;8112;53.592;10.184;2023-03-14T14:01:10;5.90;;;1.70;;
16015;SDS011;8112;53.592;10.184;2023-03-14T14:06:29;5.70;;;1.80;;
16015;SDS011;8112;53.592;10.184;2023-03-14T14:11:36;8.63;;;2.37;;
16015;SDS011;8112;53.592;10.184;2023-03-14T14:16:44;6.53;;;1.97;;
16015;SDS011;8112;53.592;10.184;2023-03-14T14:21:47;8.00;;;2.40;;
16015;SDS011;8112;53.592;10.184;2023-03-14T14:26:50;7.30;;;1.73;;
16015;SDS011;8112;53.592;10.184;2023-03-14T14:32:01;7.33;;;1.97;;
16015;SDS011;8112;53.592;10.184;2023-03-14T14:37:04;10.83;;;2.03;;
16015;SDS011;8112;53.592;10.184;2023-03-14T14:42:11;7.43;;;2.40;;
16015;SDS011;8112;53.592;10.184;2023-03-14T14:47:17;4.93;;;1.63;;
16015;SDS011;8112;53.592;10.184;2023-03-14T14:52:22;6.27;;;1.87;;
16015;SDS011;8112;53.592;10.184;2023-03-14T14:57:37;2.90;;;1.63;;
16015;SDS011;8112;53.592;10.184;2023-03-14T15:02:44;8.07;;;1.67;;
16015;SDS011;8112;53.592;10.184;2023-03-14T15:07:48;4.83;;;1.53;;
16015;SDS011;8112;53.592;10.184;2023-03-14T15:12:50;3.10;;;1.73;;
16015;SDS011;8112;53.592;10.184;2023-03-14T15:17:53;4.43;;;1.43;;
16015;SDS011;8112;53.592;10.184;2023-03-14T15:22:54;3.07;;;1.60;;
16015;SDS011;8112;53.592;10.184;2023-03-14T15:27:56;3.57;;;1.57;;
16015;SDS011;8112;53.592;10.184;2023-03-14T15:32:59;5.77;;;1.83;;
16015;SDS011;8112;53.592;10.184;2023-03-14T15:38:01;4.10;;;1.50;;
16015;SDS011;8112;53.592;10.184;2023-03-14T15:43:03;6.37;;;1.73;;
16015;SDS011;8112;53.592;10.184;2023-03-14T15:48:06;5.63;;;1.80;;
16015;SDS011;8112;53.592;10.184;2023-03-14T15:53:13;4.90;;;1.70;;
16015;SDS011;8112;53.592;10.184;2023-03-14T15:58:17;4.33;;;1.47;;
16015;SDS011;8112;53.592;10.184;2023-03-14T16:03:21;6.90;;;1.90;;
16015;SDS011;8112;53.592;10.184;2023-03-14T16:08:23;6.77;;;1.70;;
16015;SDS011;8112;53.592;10.184;2023-03-14T16:13:26;7.87;;;1.70;;
16015;SDS011;8112;53.592;10.184;2023-03-14T16:18:30;5.87;;;2.20;;
16015;SDS011;8112;53.592;10.184;2023-03-14T16:23:34;7.13;;;2.07;;
16015;SDS011;8112;53.592;10.184;2023-03-14T16:28:36;6.57;;;2.20;;
16015;SDS011;8112;53.592;10.184;2023-03-14T16:33:39;8.90;;;2.10;;
16015;SDS011;8112;53.592;10.184;2023-03-14T16:38:41;7.10;;;2.00;;
16015;SDS011;8112;53.592;10.184;2023-03-14T16:43:44;9.47;;;2.53;;
16015;SDS011;8112;53.592;10.184;2023-03-14T16:48:52;7.57;;;2.13;;
16015;SDS011;8112;53.592;10.184;2023-03-14T16:53:53;7.20;;;2.73;;
16015;SDS011;8112;53.592;10.184;2023-03-14T16:58:55;5.13;;;1.87;;
16015;SDS011;8112;53.592;10.184;2023-03-14T17:03:58;7.23;;;2.43;;
16015;SDS011;8112;53.592;10.184;2023-03-14T17:09:00;8.47;;;2.47;;
16015;SDS011;8112;53.592;10.184;2023-03-14T17:14:03;2.67;;;1.57;;
16015;SDS011;8112;53.592;10.184;2023-03-14T17:19:06;7.27;;;2.50;;
16015;SDS011;8112;53.592;10.184;2023-03-14T17:24:08;5.03;;;2.23;;
16015;SDS011;8112;53.592;10.184;2023-03-14T17:29:10;7.83;;;2.10;;
16015;SDS011;8112;53.592;10.184;2023-03-14T17:34:13;10.10;;;2.70;;
16015;SDS011;8112;53.592;10.184;2023-03-14T17:39:15;6.33;;;2.40;;
16015;SDS011;8112;53.592;10.184;2023-03-14T17:44:16;6.50;;;2.03;;
16015;SDS011;8112;53.592;10.184;2023-03-14T17:49:19;4.10;;;1.97;;
16015;SDS011;8112;53.592;10.184;2023-03-14T17:54:21;6.60;;;2.10;;
16015;SDS011;8112;53.592;10.184;2023-03-14T17:59:23;7.50;;;2.40;;
16015;SDS011;8112;53.592;10.184;2023-03-14T18:04:26;8.30;;;2.20;;
16015;SDS011;8112;53.592;10.184;2023-03-14T18:09:28;9.10;;;2.50;;
16015;SDS011;8112;53.592;10.184;2023-03-14T18:14:29;7.50;;;1.93;;
16015;SDS011;8112;53.592;10.184;2023-03-14T18:19:32;8.97;;;2.70;;
16015;SDS011;8112;53.592;10.184;2023-03-14T18:24:34;9.57;;;3.30;;
16015;SDS011;8112;53.592;10.184;2023-03-14T18:29:36;9.43;;;3.10;;
16015;SDS011;8112;53.592;10.184;2023-03-14T18:34:39;14.40;;;2.93;;
16015;SDS011;8112;53.592;10.184;2023-03-14T18:39:42;4.07;;;1.80;;
16015;SDS011;8112;53.592;10.184;2023-03-14T18:44:43;8.93;;;2.33;;
16015;SDS011;8112;53.592;10.184;2023-03-14T18:49:46;8.03;;;2.40;;
16015;SDS011;8112;53.592;10.184;2023-03-14T18:54:48;4.07;;;1.70;;
16015;SDS011;8112;53.592;10.184;2023-03-14T18:59:49;7.63;;;2.93;;
16015;SDS011;8112;53.592;10.184;2023-03-14T19:04:56;8.47;;;4.03;;
16015;SDS011;8112;53.592;10.184;2023-03-14T19:09:58;8.30;;;2.77;;
16015;SDS011;8112;53.592;10.184;2023-03-14T19:15:00;15.83;;;3.73;;
16015;SDS011;8112;53.592;10.184;2023-03-14T19:20:04;10.53;;;3.60;;
16015;SDS011;8112;53.592;10.184;2023-03-14T19:25:08;7.33;;;3.10;;
16015;SDS011;8112;53.592;10.184;2023-03-14T19:30:10;7.37;;;2.80;;
16015;SDS011;8112;53.592;10.184;2023-03-14T19:35:14;5.07;;;2.40;;
16015;SDS011;8112;53.592;10.184;2023-03-14T19:40:16;4.67;;;2.50;;
16015;SDS011;8112;53.592;10.184;2023-03-14T19:45:17;8.40;;;2.50;;
16015;SDS011;8112;53.592;10.184;2023-03-14T19:50:20;9.50;;;2.77;;
16015;SDS011;8112;53.592;10.184;2023-03-14T19:55:23;9.17;;;2.50;;
16015;SDS011;8112;53.592;10.184;2023-03-14T20:00:26;10.60;;;2.40;;
16015;SDS011;8112;53.592;10.184;2023-03-14T20:05:29;7.07;;;2.60;;
16015;SDS011;8112;53.592;10.184;2023-03-14T20:10:30;8.73;;;2.73;;
16015;SDS011;8112;53.592;10.184;2023-03-14T20:15:32;5.23;;;2.37;;
16015;SDS011;8112;53.592;10.184;2023-03-14T20:20:37;8.43;;;3.33;;
16015;SDS011;8112;53.592;10.184;2023-03-14T20:25:40;8.00;;;2.50;;
16015;SDS011;8112;53.592;10.184;2023-03-14T20:30:44;6.70;;;2.10;;
16015;SDS011;8112;53.592;10.184;2023-03-14T20:35:53;11.93;;;1.93;;
16015;SDS011;8112;53.592;10.184;2023-03-14T20:40:56;5.77;;;2.17;;
16015;SDS011;8112;53.592;10.184;2023-03-14T20:45:58;8.80;;;3.20;;
16015;SDS011;8112;53.592;10.184;2023-03-14T20:51:03;8.10;;;2.13;;
16015;SDS011;8112;53.592;10.184;2023-03-14T20:56:06;6.03;;;2.10;;
16015;SDS011;8112;53.592;10.184;2023-03-14T21:01:08;7.57;;;2.23;;
16015;SDS011;8112;53.592;10.184;2023-03-14T21:06:11;6.37;;;2.17;;
16015;SDS011;8112;53.592;10.184;2023-03-14T21:11:13;7.10;;;2.20;;
16015;SDS011;8112;53.592;10.184;2023-03-14T21:16:15;5.20;;;2.27;;
16015;SDS011;8112;53.592;10.184;2023-03-14T21:21:18;7.33;;;1.80;;
16015;SDS011;8112;53.592;10.184;2023-03-14T21:26:21;5.57;;;2.50;;
16015;SDS011;8112;53.592;10.184;2023-03-14T21:31:23;10.17;;;2.87;;
16015;SDS011;8112;53.592;10.184;2023-03-14T21:36:26;12.10;;;3.17;;
16015;SDS011;8112;53.592;10.184;2023-03-14T21:41:28;8.13;;;2.50;;
16015;SDS011;8112;53.592;10.184;2023-03-14T21:46:29;5.20;;;2.43;;
16015;SDS011;8112;53.592;10.184;2023-03-14T21:51:32;5.10;;;2.00;;
16015;SDS011;8112;53.592;10.184;2023-03-14T21:56:35;5.30;;;1.97;;
16015;SDS011;8112;53.592;10.184;2023-03-14T22:01:37;4.30;;;1.67;;
16015;SDS011;8112;53.592;10.184;2023-03-14T22:06:40;5.17;;;2.03;;
16015;SDS011;8112;53.592;10.184;2023-03-14T22:11:43;7.10;;;2.03;;
16015;SDS011;8112;53.592;10.184;2023-03-14T22:16:48;5.67;;;2.13;;
16015;SDS011;8112;53.592;10.184;2023-03-14T22:21:52;6.80;;;1.80;;
16015;SDS011;8112;53.592;10.184;2023-03-14T22:26:54;5.60;;;1.70;;
16015;SDS011;8112;53.592;10.184;2023-03-14T22:31:55;3.17;;;1.80;;
16015;SDS011;8112;53.592;10.184;2023-03-14T22:36:59;3.03;;;2.00;;
16015;SDS011;8112;53.592;10.184;2023-03-14T22:42:02;9.37;;;2.90;;
16015;SDS011;8112;53.592;10.184;2023-03-14T22:47:04;10.13;;;2.20;;
16015;SDS011;8112;53.592;10.184;2023-03-14T22:52:07;6.30;;;2.13;;
16015;SDS011;8112;53.592;10.184;2023-03-14T22:57:09;6.93;;;2.60;;
16015;SDS011;8112;53.592;10.184;2023-03-14T23:02:11;9.93;;;2.70;;
16015;SDS011;8112;53.592;10.184;2023-03-14T23:07:17;5.57;;;2.67;;
16015;SDS011;8112;53.592;10.184;2023-03-14T23:12:19;7.13;;;2.70;;
16015;SDS011;8112;53.592;10.184;2023-03-14T23:17:22;4.13;;;2.13;;
16015;SDS011;8112;53.592;10.184;2023-03-14T23:22:26;4.70;;;2.27;;
16015;SDS011;8112;53.592;10.184;2023-03-14T23:27:31;7.50;;;2.60;;
16015;SDS011;8112;53.592;10.184;2023-03-14T23:32:33;4.47;;;2.03;;
16015;SDS011;8112;53.592;10.184;2023-03-14T23:37:36;5.23;;;2.00;;
16015;SDS011;8112;53.592;10.184;2023-03-14T23:42:38;3.07;;;1.67;;
16015;SDS011;8112;53.592;10.184;2023-03-14T23:47:40;5.67;;;1.77;;
16015;SDS011;8112;53.592;10.184;2023-03-14T23:52:43;4.87;;;2.17;;
16015;SDS011;8112;53.592;10.184;2023-03-14T23:57:45;4.37;;;2.17;;
